createdAt,value
2019-02-22T00:01:13.206Z,102219.09
2019-02-22T00:03:41.662Z,102212.47
2019-02-22T00:06:10.139Z,102223.79
2019-02-22T00:08:38.664Z,102227.39
2019-02-22T00:11:07.107Z,102231.00
2019-02-22T00:13:35.654Z,102231.52
2019-02-22T00:16:04.466Z,102236.20
2019-02-22T00:18:32.919Z,102244.83
2019-02-22T00:21:01.393Z,102253.06
2019-02-22T00:23:29.783Z,102264.22
2019-02-22T00:25:58.253Z,102269.25
2019-02-22T00:28:26.680Z,102273.93
2019-02-22T00:30:55.156Z,102280.22
2019-02-22T00:33:23.682Z,102286.33
2019-02-22T00:35:52.337Z,102290.27
2019-02-22T00:38:20.792Z,102295.63
2019-02-22T00:40:49.221Z,102299.95
2019-02-22T00:43:17.696Z,102294.37
2019-02-22T00:45:46.168Z,102300.47
2019-02-22T00:48:15.466Z,102306.94
2019-02-22T00:50:43.980Z,102312.88
2019-02-22T00:53:12.426Z,102319.52
2019-02-22T00:55:41.242Z,102323.45
2019-02-22T00:58:10.032Z,102321.27
2019-02-22T01:00:38.542Z,102325.94
2019-02-22T01:03:07.064Z,102325.03
2019-02-22T01:05:35.535Z,102328.64
2019-02-22T01:08:03.978Z,102341.61
2019-02-22T01:10:32.489Z,102346.64
2019-02-22T01:13:00.937Z,102324.06
2019-02-22T01:15:29.561Z,102350.58
2019-02-22T01:17:57.963Z,102357.96
2019-02-22T01:20:26.432Z,102362.24
2019-02-22T01:22:54.971Z,102371.39
2019-02-22T01:25:23.407Z,102358.98
2019-02-22T01:27:51.870Z,102358.98
2019-02-22T01:30:20.308Z,102354.30
2019-02-22T01:32:48.792Z,102353.25
2019-02-22T01:35:17.348Z,102360.23
2019-02-22T01:37:45.848Z,102369.36
2019-02-22T01:40:14.306Z,102372.44
2019-02-22T01:42:42.780Z,102373.13
2019-02-22T01:45:11.478Z,102378.00
2019-02-22T01:47:39.921Z,102381.59
2019-02-22T01:50:08.693Z,102378.73
2019-02-22T01:52:37.239Z,102383.59
2019-02-22T01:55:05.890Z,102385.55
2019-02-22T01:57:34.341Z,102396.67
2019-02-22T02:00:02.802Z,102392.39
2019-02-22T02:02:31.242Z,102388.97
2019-02-22T02:04:59.743Z,102384.12
2019-02-22T02:07:28.231Z,102381.61
2019-02-22T02:09:56.686Z,102393.48
2019-02-22T02:12:25.146Z,102392.58
2019-02-22T02:14:53.975Z,102383.43
2019-02-22T02:17:22.447Z,102386.66
2019-02-22T02:19:50.919Z,102384.53
2019-02-22T02:22:19.388Z,102396.00
2019-02-22T02:24:47.837Z,102394.52
2019-02-22T02:27:16.294Z,102385.92
2019-02-22T02:29:44.746Z,102395.98
2019-02-22T02:32:13.196Z,102400.44
2019-02-22T02:34:41.655Z,102400.09
2019-02-22T02:37:10.129Z,102406.04
2019-02-22T02:39:38.703Z,102408.17
2019-02-22T02:42:07.250Z,102408.55
2019-02-22T02:44:35.734Z,102411.06
2019-02-22T02:47:04.234Z,102413.36
2019-02-22T02:49:32.766Z,102416.60
2019-02-22T02:52:01.201Z,102421.63
2019-02-22T02:54:29.662Z,102423.98
2019-02-22T02:56:58.239Z,102424.90
2019-02-22T02:59:26.732Z,102428.29
2019-02-22T03:01:55.207Z,102429.55
2019-02-22T03:04:23.751Z,102433.86
2019-02-22T03:06:56.539Z,102432.60
2019-02-22T03:09:25.073Z,102444.80
2019-02-22T03:11:53.546Z,102438.16
2019-02-22T03:14:22.212Z,102435.11
2019-02-22T03:16:50.678Z,102440.48
2019-02-22T03:19:19.175Z,102448.38
2019-02-22T03:21:47.703Z,102455.92
2019-02-22T03:24:16.347Z,102465.45
2019-02-22T03:26:44.855Z,102464.88
2019-02-22T03:29:13.849Z,102467.02
2019-02-22T03:31:42.472Z,102468.09
2019-02-22T03:34:10.924Z,102481.70
2019-02-22T03:36:39.487Z,102481.16
2019-02-22T03:39:07.936Z,102474.66
2019-02-22T03:41:36.405Z,102478.30
2019-02-22T03:44:04.887Z,102474.16
2019-02-22T03:46:33.416Z,102482.23
2019-02-22T03:49:01.985Z,102500.48
2019-02-22T03:51:30.896Z,102497.44
2019-02-22T03:53:59.432Z,102492.26
2019-02-22T03:56:27.914Z,102502.84
2019-02-22T03:58:56.549Z,102502.50
2019-02-22T04:01:25.028Z,102506.27
2019-02-22T04:03:53.454Z,102486.56
2019-02-22T04:06:21.942Z,102510.89
2019-02-22T04:08:50.657Z,102510.54
2019-02-22T04:11:19.149Z,102512.90
2019-02-22T04:13:47.588Z,102512.37
2019-02-22T04:16:16.017Z,102518.08
2019-02-22T04:18:44.493Z,102517.89
2019-02-22T04:21:12.990Z,102523.11
2019-02-22T04:23:41.435Z,102518.58
2019-02-22T04:26:09.888Z,102509.59
2019-02-22T04:28:39.407Z,102517.30
2019-02-22T04:31:07.897Z,102527.16
2019-02-22T04:33:36.334Z,102532.03
2019-02-22T04:36:04.795Z,102540.86
2019-02-22T04:38:33.240Z,102532.98
2019-02-22T04:41:01.684Z,102543.41
2019-02-22T04:43:30.278Z,102545.61
2019-02-22T04:45:58.769Z,102555.52
2019-02-22T04:48:27.344Z,102546.52
2019-02-22T04:50:55.845Z,102554.06
2019-02-22T04:53:24.312Z,102560.01
2019-02-22T04:55:52.770Z,102557.84
2019-02-22T04:58:21.395Z,102556.23
2019-02-22T05:00:50.113Z,102563.40
2019-02-22T05:03:18.693Z,102571.51
2019-02-22T05:05:47.842Z,102576.13
2019-02-22T05:08:16.287Z,102590.11
2019-02-22T05:10:44.782Z,102592.62
2019-02-22T05:13:13.647Z,102595.66
2019-02-22T05:15:42.119Z,102589.92
2019-02-22T05:18:10.546Z,102597.98
2019-02-22T05:20:39.036Z,102601.38
2019-02-22T05:23:07.929Z,102603.32
2019-02-22T05:25:36.378Z,102607.09
2019-02-22T05:28:04.877Z,102607.44
2019-02-22T05:30:36.332Z,102614.98
2019-02-22T05:33:03.688Z,102618.21
2019-02-22T05:35:32.153Z,102615.12
2019-02-22T05:38:00.619Z,102622.67
2019-02-22T05:40:29.051Z,102626.63
2019-02-22T05:42:57.506Z,102624.65
2019-02-22T05:45:25.956Z,102633.78
2019-02-22T05:47:54.383Z,102628.95
2019-02-22T05:50:22.868Z,102635.80
2019-02-22T05:52:51.778Z,102641.33
2019-02-22T05:55:20.227Z,102634.85
2019-02-22T05:57:48.696Z,102643.66
2019-02-22T06:00:18.037Z,102655.84
2019-02-22T06:02:46.671Z,102658.16
2019-02-22T06:05:15.146Z,102662.08
2019-02-22T06:07:43.600Z,102660.44
2019-02-22T06:10:12.167Z,102667.25
2019-02-22T06:12:40.837Z,102668.52
2019-02-22T06:15:09.663Z,102680.34
2019-02-22T06:17:38.085Z,102685.00
2019-02-22T06:20:09.591Z,102686.63
2019-02-22T06:22:38.074Z,102689.34
2019-02-22T06:25:07.434Z,102700.08
2019-02-22T06:27:35.873Z,102701.56
2019-02-22T06:30:07.857Z,102708.58
2019-02-22T06:32:36.297Z,102706.59
2019-02-22T06:35:08.702Z,102708.39
2019-02-22T06:37:36.078Z,102711.44
2019-02-22T06:40:06.074Z,102707.33
2019-02-22T06:42:44.921Z,102719.98
2019-02-22T06:45:06.710Z,102721.20
2019-02-22T06:47:35.184Z,102733.61
2019-02-22T06:50:03.822Z,102743.18
2019-02-22T06:52:32.292Z,102742.98
2019-02-22T06:55:00.735Z,102750.86
2019-02-22T06:57:29.235Z,102749.36
2019-02-22T06:59:57.782Z,102747.30
2019-02-22T07:02:26.220Z,102749.46
2019-02-22T07:04:54.672Z,102742.84
2019-02-22T07:07:23.181Z,102752.41
2019-02-22T07:09:51.782Z,102751.64
2019-02-22T07:12:21.855Z,102758.83
2019-02-22T07:14:50.375Z,102762.20
2019-02-22T07:17:18.821Z,102765.80
2019-02-22T07:19:47.247Z,102776.82
2019-02-22T07:22:15.764Z,102779.91
2019-02-22T07:24:44.185Z,102786.05
2019-02-22T07:27:12.738Z,102788.17
2019-02-22T07:29:41.475Z,102797.05
2019-02-22T07:32:10.063Z,102795.94
2019-02-22T07:34:38.519Z,102808.09
2019-02-22T07:37:06.971Z,102808.76
2019-02-22T07:39:35.406Z,102811.96
2019-02-22T07:42:03.853Z,102817.46
2019-02-22T07:44:32.312Z,102824.62
2019-02-22T07:47:00.790Z,102821.28
2019-02-22T07:49:29.259Z,102823.35
2019-02-22T07:51:57.713Z,102831.62
2019-02-22T07:54:26.380Z,102838.16
2019-02-22T07:56:54.861Z,102842.22
2019-02-22T07:59:23.360Z,102855.89
2019-02-22T08:01:51.818Z,102856.27
2019-02-22T08:04:20.300Z,102867.06
2019-02-22T08:06:48.785Z,102876.77
2019-02-22T08:09:17.238Z,102875.12
2019-02-22T08:11:47.477Z,102885.45
2019-02-22T08:14:15.935Z,102894.87
2019-02-22T08:16:44.374Z,102893.91
2019-02-22T08:19:12.933Z,102903.35
2019-02-22T08:21:41.381Z,102907.18
2019-02-22T08:24:09.882Z,102899.48
2019-02-22T08:26:38.333Z,102901.91
2019-02-22T08:29:06.830Z,102913.05
2019-02-22T08:31:35.329Z,102918.88
2019-02-22T08:34:03.757Z,102921.39
2019-02-22T08:36:32.256Z,102926.53
2019-02-22T08:39:00.714Z,102925.96
2019-02-22T08:41:29.231Z,102933.36
2019-02-22T08:43:57.683Z,102932.61
2019-02-22T08:46:26.129Z,102938.57
2019-02-22T08:48:54.588Z,102940.82
2019-02-22T08:51:23.055Z,102944.87
2019-02-22T08:53:51.815Z,102953.50
2019-02-22T08:56:20.325Z,102956.19
2019-02-22T08:58:48.769Z,102951.50
2019-02-22T09:01:17.249Z,102964.06
2019-02-22T09:03:50.638Z,102964.81
2019-02-22T09:06:15.858Z,102963.43
2019-02-22T09:08:44.296Z,102966.69
2019-02-22T09:11:12.759Z,102965.70
2019-02-22T09:13:43.794Z,102970.66
2019-02-22T09:16:11.412Z,102973.16
2019-02-22T09:18:39.935Z,102978.97
2019-02-22T09:21:08.505Z,102983.92
2019-02-22T09:23:36.989Z,102986.70
2019-02-22T09:26:05.836Z,102987.25
2019-02-22T09:28:34.296Z,103002.69
2019-02-22T09:31:02.744Z,103001.06
2019-02-22T09:33:31.402Z,103002.76
2019-02-22T09:36:00.360Z,102998.72
2019-02-22T09:38:28.820Z,102992.72
2019-02-22T09:40:58.939Z,103001.84
2019-02-22T09:43:27.578Z,103001.17
2019-02-22T09:45:56.098Z,103011.70
2019-02-22T09:48:24.538Z,103012.55
2019-02-22T09:50:53.075Z,103016.63
2019-02-22T09:53:21.527Z,103025.82
2019-02-22T09:55:49.984Z,103027.86
2019-02-22T09:58:18.522Z,103028.74
2019-02-22T10:00:47.300Z,103032.95
2019-02-22T10:03:16.034Z,103037.33
2019-02-22T10:05:44.794Z,103040.83
2019-02-22T10:08:13.238Z,103043.78
2019-02-22T10:10:41.762Z,103044.19
2019-02-22T10:13:10.231Z,103040.76
2019-02-22T10:15:38.760Z,103046.44
2019-02-22T10:18:07.227Z,103052.20
2019-02-22T10:20:35.673Z,103058.15
2019-02-22T10:23:04.196Z,103064.77
2019-02-22T10:25:32.644Z,103076.41
2019-02-22T10:28:01.093Z,103075.88
2019-02-22T10:30:29.869Z,103073.70
2019-02-22T10:32:58.408Z,103075.94
2019-02-22T10:35:26.925Z,103077.59
2019-02-22T10:37:55.515Z,103084.02
2019-02-22T10:40:24.016Z,103099.31
2019-02-22T10:42:52.510Z,103104.80
2019-02-22T10:45:20.929Z,103103.48
2019-02-22T10:47:49.357Z,103109.05
2019-02-22T10:50:17.857Z,103112.79
2019-02-22T10:52:46.283Z,103113.98
2019-02-22T10:55:14.731Z,103121.56
2019-02-22T10:57:43.200Z,103127.62
2019-02-22T11:00:14.238Z,103131.55
2019-02-22T11:02:42.805Z,103140.23
2019-02-22T11:05:11.325Z,103139.11
2019-02-22T11:07:39.764Z,103143.09
2019-02-22T11:10:10.892Z,103135.47
2019-02-22T11:12:39.390Z,103155.16
2019-02-22T11:15:10.385Z,103161.55
2019-02-22T11:17:38.909Z,103156.56
2019-02-22T11:20:09.797Z,103165.13
2019-02-22T11:22:38.265Z,103154.42
2019-02-22T11:25:12.013Z,103161.50
2019-02-22T11:27:40.501Z,103162.86
2019-02-22T11:30:11.978Z,103170.92
2019-02-22T11:32:40.435Z,103176.84
2019-02-22T11:35:10.345Z,103169.22
2019-02-22T11:37:38.789Z,103179.83
2019-02-22T11:40:09.161Z,103182.08
2019-02-22T11:42:37.696Z,103178.33
2019-02-22T11:45:07.669Z,103195.75
2019-02-22T11:47:36.209Z,103185.63
2019-02-22T11:50:07.514Z,103196.56
2019-02-22T11:52:36.063Z,103197.70
2019-02-22T11:55:06.535Z,103196.79
2019-02-22T11:57:34.992Z,103192.11
2019-02-22T12:00:05.106Z,103193.84
2019-02-22T12:02:33.621Z,103196.78
2019-02-22T12:05:02.170Z,103200.31
2019-02-22T12:07:30.943Z,103194.60
2019-02-22T12:09:59.456Z,103206.45
2019-02-22T12:12:27.919Z,103203.94
2019-02-22T12:14:56.399Z,103203.13
2019-02-22T12:17:24.877Z,103198.82
2019-02-22T12:19:53.505Z,103211.23
2019-02-22T12:22:22.242Z,103218.64
2019-02-22T12:24:50.718Z,103215.44
2019-02-22T12:27:19.303Z,103221.70
2019-02-22T12:29:48.056Z,103224.08
2019-02-22T12:32:16.699Z,103223.97
2019-02-22T12:34:45.288Z,103224.33
2019-02-22T12:37:13.781Z,103228.97
2019-02-22T12:39:42.220Z,103234.80
2019-02-22T12:42:11.317Z,103241.39
2019-02-22T12:44:39.782Z,103249.23
2019-02-22T12:47:08.217Z,103251.31
2019-02-22T12:49:36.671Z,103257.56
2019-02-22T12:52:05.244Z,103256.88
2019-02-22T12:54:33.767Z,103263.24
2019-02-22T12:57:02.193Z,103264.25
2019-02-22T12:59:30.719Z,103268.94
2019-02-22T13:01:59.218Z,103260.28
2019-02-22T13:04:27.686Z,103264.06
2019-02-22T13:06:56.135Z,103274.53
2019-02-22T13:09:24.594Z,103276.92
2019-02-22T13:11:54.767Z,103278.95
2019-02-22T13:14:23.533Z,103283.31
2019-02-22T13:16:52.039Z,103285.45
2019-02-22T13:19:20.475Z,103287.06
2019-02-22T13:21:48.904Z,103293.99
2019-02-22T13:24:17.503Z,103300.13
2019-02-22T13:26:46.088Z,103310.98
2019-02-22T13:29:14.609Z,103308.59
2019-02-22T13:31:43.457Z,103317.80
2019-02-22T13:34:12.025Z,103326.24
2019-02-22T13:36:40.507Z,103327.94
2019-02-22T13:39:09.301Z,103326.80
2019-02-22T13:41:37.807Z,103325.31
2019-02-22T13:44:06.276Z,103326.35
2019-02-22T13:46:34.727Z,103337.51
2019-02-22T13:49:03.260Z,103341.70
2019-02-22T13:51:34.097Z,103339.73
2019-02-22T13:54:02.388Z,103350.80
2019-02-22T13:56:30.939Z,103343.60
2019-02-22T13:58:59.395Z,103343.80
2019-02-22T14:01:27.871Z,103343.42
2019-02-22T14:03:56.335Z,103335.89
2019-02-22T14:06:24.802Z,103333.72
2019-02-22T14:08:53.718Z,103328.92
2019-02-22T14:11:22.182Z,103323.07
2019-02-22T14:13:50.657Z,103330.76
2019-02-22T14:16:19.145Z,103338.13
2019-02-22T14:18:47.689Z,103332.29
2019-02-22T14:21:16.180Z,103349.38
2019-02-22T14:23:44.604Z,103351.71
2019-02-22T14:26:13.058Z,103357.89
2019-02-22T14:28:41.527Z,103361.34
2019-02-22T14:31:09.969Z,103368.78
2019-02-22T14:33:38.476Z,103360.49
2019-02-22T14:36:06.945Z,103355.33
2019-02-22T14:38:35.571Z,103353.06
2019-02-22T14:41:04.581Z,103365.20
2019-02-22T14:43:33.014Z,103370.10
2019-02-22T14:46:01.449Z,103364.02
2019-02-22T14:48:29.892Z,103367.21
2019-02-22T14:50:58.322Z,103369.71
2019-02-22T14:53:27.022Z,103377.38
2019-02-22T14:55:55.476Z,103385.47
2019-02-22T14:58:24.125Z,103391.45
2019-02-22T15:00:52.814Z,103395.34
2019-02-22T15:03:24.288Z,103397.17
2019-02-22T15:05:52.770Z,103392.93
2019-02-22T15:08:21.259Z,103383.59
2019-02-22T15:10:49.680Z,103383.97
2019-02-22T15:13:18.163Z,103392.97
2019-02-22T15:16:00.937Z,103395.81
2019-02-22T15:18:24.071Z,103404.98
2019-02-22T15:20:52.930Z,103394.73
2019-02-22T15:23:21.723Z,103405.80
2019-02-22T15:25:50.675Z,103412.11
2019-02-22T15:28:19.121Z,103415.27
2019-02-22T15:30:47.665Z,103423.80
2019-02-22T15:33:16.108Z,103423.60
2019-02-22T15:35:44.631Z,103421.05
2019-02-22T15:38:13.095Z,103416.20
2019-02-22T15:40:41.717Z,103411.86
2019-02-22T15:43:10.141Z,103411.72
2019-02-22T15:45:38.606Z,103399.17
2019-02-22T15:48:07.114Z,103396.81
2019-02-22T15:50:35.901Z,103407.48
2019-02-22T15:53:04.718Z,103398.39
2019-02-22T15:55:33.248Z,103404.47
2019-02-22T15:58:01.712Z,103409.55
2019-02-22T16:00:32.787Z,103418.00
2019-02-22T16:03:01.277Z,103417.94
2019-02-22T16:05:31.375Z,103421.85
2019-02-22T16:07:59.944Z,103435.55
2019-02-22T16:10:28.580Z,103435.55
2019-02-22T16:12:57.043Z,103442.66
2019-02-22T16:15:25.852Z,103435.58
2019-02-22T16:17:54.459Z,103427.77
2019-02-22T16:20:23.030Z,103423.02
2019-02-22T16:22:51.743Z,103424.38
2019-02-22T16:25:20.446Z,103424.38
2019-02-22T16:27:48.928Z,103431.20
2019-02-22T16:30:19.902Z,103438.20
2019-02-22T16:32:48.347Z,103435.39
2019-02-22T16:35:16.788Z,103432.38
2019-02-22T16:37:45.247Z,103443.67
2019-02-22T16:40:13.724Z,103428.38
2019-02-22T16:42:42.190Z,103428.38
2019-02-22T16:45:12.211Z,103440.45
2019-02-22T16:47:40.927Z,103440.45
2019-02-22T16:50:11.368Z,103455.04
2019-02-22T16:52:39.811Z,103452.38
2019-02-22T16:55:11.307Z,103452.45
2019-02-22T16:57:39.822Z,103448.98
2019-02-22T17:00:10.994Z,103448.98
2019-02-22T17:02:39.730Z,103453.30
2019-02-22T17:05:10.099Z,103460.37
2019-02-22T17:07:38.556Z,103450.47
2019-02-22T17:10:09.643Z,103459.06
2019-02-22T17:12:38.077Z,103465.53
2019-02-22T17:15:08.962Z,103466.29
2019-02-22T17:17:37.487Z,103469.97
2019-02-22T17:20:08.792Z,103462.41
2019-02-22T17:22:37.254Z,103474.47
2019-02-22T17:25:08.614Z,103482.44
2019-02-22T17:27:37.318Z,103489.12
2019-02-22T17:30:09.201Z,103487.89
2019-02-22T17:32:37.725Z,103489.87
2019-02-22T17:35:06.757Z,103491.12
2019-02-22T17:37:35.236Z,103496.52
2019-02-22T17:40:04.343Z,103502.27
2019-02-22T17:42:32.865Z,103507.94
2019-02-22T17:45:01.402Z,103516.14
2019-02-22T17:47:29.852Z,103513.89
2019-02-22T17:49:58.297Z,103507.58
2019-02-22T17:52:26.805Z,103513.40
2019-02-22T17:54:55.270Z,103518.47
2019-02-22T17:57:23.768Z,103514.33
2019-02-22T17:59:52.269Z,103515.98
2019-02-22T18:02:21.221Z,103516.06
2019-02-22T18:04:49.731Z,103508.98
2019-02-22T18:07:18.210Z,103503.11
2019-02-22T18:09:46.652Z,103497.03
2019-02-22T18:12:15.145Z,103497.03
2019-02-22T18:14:43.789Z,103479.58
2019-02-22T18:17:12.191Z,103479.58
2019-02-22T18:19:40.747Z,103488.88
2019-02-22T18:22:09.228Z,103509.19
2019-02-22T18:24:37.653Z,103506.61
2019-02-22T18:27:06.112Z,103506.61
2019-02-22T18:29:35.704Z,103504.27
2019-02-22T18:32:04.474Z,103511.84
2019-02-22T18:34:32.912Z,103512.80
2019-02-22T18:37:01.494Z,103511.30
2019-02-22T18:39:29.957Z,103511.30
2019-02-22T18:41:58.440Z,103516.44
2019-02-22T18:44:26.886Z,103527.63
2019-02-22T18:46:55.356Z,103533.38
2019-02-22T18:49:23.811Z,103541.85
2019-02-22T18:51:52.250Z,103543.67
2019-02-22T18:54:20.737Z,103557.38
2019-02-22T18:56:49.266Z,103565.95
2019-02-22T18:59:17.744Z,103564.53
2019-02-22T19:01:46.287Z,103565.37
2019-02-22T19:04:14.751Z,103563.95
2019-02-22T19:06:43.169Z,103561.98
2019-02-22T19:09:11.675Z,103553.73
2019-02-22T19:11:40.192Z,103555.98
2019-02-22T19:14:08.623Z,103543.59
2019-02-22T19:16:37.109Z,103549.89
2019-02-22T19:19:05.597Z,103550.05
2019-02-22T19:21:34.035Z,103546.62
2019-02-22T19:24:02.496Z,103548.87
2019-02-22T19:26:31.080Z,103544.33
2019-02-22T19:28:59.552Z,103553.19
2019-02-22T19:31:28.304Z,103559.17
2019-02-22T19:33:56.744Z,103565.20
2019-02-22T19:36:25.218Z,103568.69
2019-02-22T19:38:53.646Z,103561.36
2019-02-22T19:41:22.091Z,103565.70
2019-02-22T19:43:51.337Z,103565.95
2019-02-22T19:46:21.641Z,103558.05
2019-02-22T19:48:50.240Z,103551.97
2019-02-22T19:51:18.716Z,103546.13
2019-02-22T19:53:47.167Z,103545.35
2019-02-22T19:56:15.613Z,103543.94
2019-02-22T19:58:44.112Z,103549.66
2019-02-22T20:01:12.602Z,103546.56
2019-02-22T20:03:41.040Z,103547.56
2019-02-22T20:06:09.517Z,103547.70
2019-02-22T20:08:38.065Z,103550.27
2019-02-22T20:11:06.667Z,103555.31
2019-02-22T20:13:35.094Z,103555.50
2019-02-22T20:16:03.540Z,103560.47
2019-02-22T20:18:32.005Z,103546.56
2019-02-22T20:21:00.438Z,103541.41
2019-02-22T20:23:28.871Z,103543.65
2019-02-22T20:25:57.347Z,103539.13
2019-02-22T20:28:25.858Z,103534.89
2019-02-22T20:30:54.309Z,103532.16
2019-02-22T20:33:22.798Z,103523.52
2019-02-22T20:35:51.372Z,103530.38
2019-02-22T20:38:19.786Z,103526.14
2019-02-22T20:40:48.321Z,103536.23
2019-02-22T20:43:16.793Z,103537.86
2019-02-22T20:45:45.330Z,103542.52
2019-02-22T20:48:13.818Z,103545.08
2019-02-22T20:50:42.263Z,103544.08
2019-02-22T20:53:10.744Z,103547.56
2019-02-22T20:55:39.192Z,103555.28
2019-02-22T20:58:07.786Z,103564.85
2019-02-22T21:00:36.221Z,103558.56
2019-02-22T21:03:04.712Z,103566.88
2019-02-22T21:05:33.159Z,103582.14
2019-02-22T21:08:01.615Z,103581.56
2019-02-22T21:10:30.109Z,103580.09
2019-02-22T21:12:58.542Z,103577.95
2019-02-22T21:15:27.325Z,103583.38
2019-02-22T21:17:55.808Z,103576.05
2019-02-22T21:20:24.251Z,103580.34
2019-02-22T21:22:52.686Z,103583.66
2019-02-22T21:25:21.763Z,103582.97
2019-02-22T21:27:50.260Z,103577.52
2019-02-22T21:30:20.139Z,103580.73
2019-02-22T21:32:48.807Z,103590.69
2019-02-22T21:35:17.246Z,103585.97
2019-02-22T21:37:45.890Z,103589.26
2019-02-22T21:40:14.700Z,103597.97
2019-02-22T21:42:43.140Z,103608.23
2019-02-22T21:45:14.266Z,103613.27
2019-02-22T21:47:53.746Z,103618.78
2019-02-22T21:50:14.153Z,103616.48
2019-02-22T21:52:42.615Z,103612.28
2019-02-22T21:55:12.487Z,103618.17
2019-02-22T21:57:41.005Z,103608.03
2019-02-22T22:00:23.469Z,103606.13
2019-02-22T22:02:51.903Z,103605.80
2019-02-22T22:05:20.374Z,103599.39
2019-02-22T22:07:48.827Z,103597.70
2019-02-22T22:10:17.464Z,103604.81
2019-02-22T22:12:46.021Z,103612.74
2019-02-22T22:15:15.580Z,103607.77
2019-02-22T22:17:44.087Z,103599.45
2019-02-22T22:20:12.652Z,103606.39
2019-02-22T22:22:41.147Z,103604.86
2019-02-22T22:25:16.621Z,103607.50
2019-02-22T22:27:45.197Z,103605.27
2019-02-22T22:30:17.106Z,103612.98
2019-02-22T22:32:45.552Z,103615.53
2019-02-22T22:35:20.255Z,103622.93
2019-02-22T22:37:48.723Z,103617.29
2019-02-22T22:40:17.317Z,103611.80
2019-02-22T22:42:45.784Z,103616.72
2019-02-22T22:45:16.524Z,103616.72
2019-02-22T22:47:45.136Z,103614.96
2019-02-22T22:50:15.027Z,103620.94
2019-02-22T22:52:43.486Z,103615.45
2019-02-22T22:55:11.993Z,103625.59
2019-02-22T22:57:41.965Z,103618.14
2019-02-22T23:00:53.004Z,103634.97
2019-02-22T23:03:22.000Z,103655.80
2019-02-22T23:05:50.455Z,103665.75
2019-02-22T23:08:18.997Z,103671.02
2019-02-22T23:10:47.524Z,103671.64
2019-02-22T23:13:16.062Z,103658.95
2019-02-22T23:15:44.599Z,103666.41
2019-02-22T23:18:13.033Z,103671.91
2019-02-22T23:20:41.570Z,103671.53
2019-02-22T23:23:10.305Z,103659.36
2019-02-22T23:25:38.798Z,103651.01
2019-02-22T23:28:07.229Z,103656.30
2019-02-22T23:30:35.673Z,103657.22
2019-02-22T23:33:04.463Z,103666.23
2019-02-22T23:35:32.922Z,103664.39
2019-02-22T23:38:01.380Z,103659.09
2019-02-22T23:40:29.835Z,103663.55
2019-02-22T23:42:58.566Z,103656.87
2019-02-22T23:45:27.153Z,103664.02
2019-02-22T23:47:55.651Z,103659.04
2019-02-22T23:50:24.102Z,103651.58
2019-02-22T23:52:52.530Z,103628.93
2019-02-22T23:55:20.991Z,103645.88
2019-02-22T23:57:49.449Z,103648.72
